Alden, Illinois
Current Conditions -  °F | °C
As of 12:15 AM on Saturday 25 Oct 2014 (Local Time) from KBUU Reporting Station
Broken Clouds Broken Clouds  
Wind Chill: 54°   Ceiling: 4100
Heat Index: 54°   Visibility: 10mi
Dew Point: 48°   Wind: 6mph
Humidity: 79%   Direction: 230°SW
Pressure: 29.89"   Gusts: NA
Location:  42.46°N, 88.52°W
Report Text: KBUU 250515Z AUTO 23005KT 10SM BKN041 12/09 A2989 RMK AO2 T01220087
Loading
Personal Weather Stations






























Interactive Weather Map
Tropical Storm Tracking
New forecast layout! Learn more

10-Day Weather Forecast

Advertisements
Track Severe Weather on mobile